Time;durP1;ratioP1;P1;durP2;ratioP2;P2;SDS_P1;SDS_P2;PMS_P1;PMS_P2;Temp;Humidity;BMP_temperature;BMP_pressure;BME280_temperature;BME280_humidity;BME280_pressure;Samples;Min_cycle;Max_cycle;Signal;HPM_P1;HPM_P2
2023/07/25 00:01:19;;;;;;;1.60;1.30;;;23.20;92.70;;;;;;5101331;28;20556;-90
2023/07/25 00:03:47;;;;;;;2.03;1.63;;;23.20;92.80;;;;;;5103583;28;20186;-90
2023/07/25 00:06:13;;;;;;;2.07;1.50;;;23.20;92.80;;;;;;5104284;28;20264;-90
2023/07/25 00:08:39;;;;;;;4.30;1.60;;;23.10;92.70;;;;;;5113969;28;20174;-90
2023/07/25 00:11:06;;;;;;;1.57;1.40;;;23.10;92.80;;;;;;5101262;28;20174;-91
2023/07/25 00:13:32;;;;;;;3.00;1.43;;;23.20;92.70;;;;;;5107377;28;20167;-90
2023/07/25 00:15:58;;;;;;;3.67;1.70;;;23.10;92.70;;;;;;5109832;28;20311;-91
2023/07/25 00:18:24;;;;;;;3.13;1.70;;;23.20;92.80;;;;;;5111939;28;20206;-91
2023/07/25 00:20:49;;;;;;;2.30;1.60;;;23.10;92.80;;;;;;5077114;28;20494;-91
2023/07/25 00:23:15;;;;;;;1.70;1.40;;;23.10;92.70;;;;;;5103583;28;20219;-91
2023/07/25 00:25:41;;;;;;;2.27;1.63;;;23.10;92.70;;;;;;5113579;28;20238;-90
2023/07/25 00:28:10;;;;;;;1.77;1.43;;;23.10;92.80;;;;;;5113627;28;20617;-90
2023/07/25 00:30:36;;;;;;;1.80;1.30;;;23.10;92.80;;;;;;5113061;28;20189;-90
2023/07/25 00:33:01;;;;;;;2.30;1.57;;;23.10;92.80;;;;;;5102179;28;20167;-91
2023/07/25 00:35:27;;;;;;;2.27;1.43;;;23.10;92.70;;;;;;5104276;28;20563;-90
2023/07/25 00:37:53;;;;;;;2.47;1.63;;;23.10;92.80;;;;;;5109224;28;20606;-91
2023/07/25 00:40:19;;;;;;;3.33;1.40;;;23.10;92.70;;;;;;5103480;28;20189;-90
2023/07/25 00:42:44;;;;;;;2.17;1.57;;;23.00;92.70;;;;;;5100208;28;20183;-91
2023/07/25 00:45:10;;;;;;;2.70;1.30;;;23.00;92.70;;;;;;5108009;28;20175;-90
2023/07/25 00:47:36;;;;;;;1.83;1.47;;;23.00;92.70;;;;;;5102233;28;20198;-90
2023/07/25 00:50:02;;;;;;;2.30;1.40;;;23.00;92.70;;;;;;5108777;28;20332;-90
2023/07/25 00:52:28;;;;;;;1.83;1.33;;;23.00;92.70;;;;;;5103983;28;20233;-90
2023/07/25 00:54:54;;;;;;;2.73;1.60;;;23.00;92.70;;;;;;5105927;28;20171;-91
2023/07/25 00:57:20;;;;;;;2.10;1.33;;;23.00;92.80;;;;;;5102450;28;20806;-90
2023/07/25 00:59:46;;;;;;;4.03;1.37;;;23.00;92.70;;;;;;5109061;28;20205;-90
2023/07/25 01:02:14;;;;;;;1.83;1.40;;;23.00;92.70;;;;;;5102925;28;20545;-90
2023/07/25 01:04:40;;;;;;;1.97;1.53;;;23.00;92.70;;;;;;5110258;28;20205;-90
2023/07/25 01:07:10;;;;;;;1.43;1.30;;;23.00;92.70;;;;;;5104863;28;20210;-90
2023/07/25 01:09:40;;;;;;;1.43;1.27;;;23.00;92.70;;;;;;5103881;28;20560;-90
2023/07/25 01:12:06;;;;;;;1.73;1.30;;;23.00;92.80;;;;;;5109929;28;20198;-89
2023/07/25 01:14:33;;;;;;;2.73;1.50;;;23.00;92.70;;;;;;5101918;28;20187;-90
2023/07/25 01:17:09;;;;;;;2.43;1.60;;;22.90;92.70;;;;;;5100138;28;20182;-89
2023/07/25 01:19:37;;;;;;;1.53;1.40;;;22.90;92.70;;;;;;5106064;28;20446;-90
2023/07/25 01:22:03;;;;;;;1.30;1.20;;;22.90;92.70;;;;;;5101563;28;20277;-90
2023/07/25 01:24:29;;;;;;;2.67;1.50;;;22.90;92.70;;;;;;5107269;28;20197;-90
2023/07/25 01:26:56;;;;;;;1.73;1.30;;;22.90;92.70;;;;;;5103252;28;20503;-90
2023/07/25 01:29:21;;;;;;;2.03;1.30;;;22.90;92.70;;;;;;5102732;28;20412;-90
2023/07/25 01:31:47;;;;;;;2.47;1.37;;;22.90;92.70;;;;;;5099371;28;20299;-90
2023/07/25 01:34:13;;;;;;;2.33;1.30;;;22.90;92.70;;;;;;5107928;28;20517;-90
2023/07/25 01:36:39;;;;;;;1.70;1.30;;;22.90;92.70;;;;;;5112788;28;20183;-90
2023/07/25 01:39:04;;;;;;;2.47;1.53;;;22.90;92.60;;;;;;5101297;28;20185;-90
2023/07/25 01:41:30;;;;;;;2.43;1.43;;;22.90;92.70;;;;;;5104184;28;20182;-90
2023/07/25 01:43:57;;;;;;;2.20;1.40;;;22.90;92.70;;;;;;5103485;28;20182;-90
2023/07/25 01:46:25;;;;;;;1.63;1.33;;;22.90;92.70;;;;;;5107903;28;20218;-90
2023/07/25 01:48:51;;;;;;;1.47;1.33;;;22.90;92.70;;;;;;5106131;28;20361;-90
2023/07/25 01:51:16;;;;;;;2.77;1.40;;;22.90;92.70;;;;;;5102161;28;20262;-91
2023/07/25 01:53:42;;;;;;;2.37;1.30;;;22.80;92.60;;;;;;5102587;28;20262;-91
2023/07/25 01:56:08;;;;;;;3.10;1.20;;;22.90;92.70;;;;;;5106102;28;20182;-90
2023/07/25 01:58:33;;;;;;;2.13;1.50;;;22.90;92.70;;;;;;5110649;28;20214;-90
2023/07/25 02:00:59;;;;;;;2.00;1.40;;;22.90;92.70;;;;;;5102074;28;20285;-90
2023/07/25 02:03:27;;;;;;;1.30;1.20;;;22.80;92.70;;;;;;5109762;28;20193;-91
2023/07/25 02:05:52;;;;;;;2.70;1.57;;;22.80;92.70;;;;;;5103133;28;20296;-90
2023/07/25 02:08:18;;;;;;;2.27;1.50;;;22.80;92.70;;;;;;5100327;28;20265;-90
2023/07/25 02:10:44;;;;;;;2.33;1.60;;;22.80;92.60;;;;;;5099932;28;20186;-90
2023/07/25 02:13:10;;;;;;;2.47;1.37;;;22.80;92.70;;;;;;5103099;28;20208;-90
2023/07/25 02:15:37;;;;;;;2.03;1.50;;;22.80;92.80;;;;;;5101923;28;20170;-90
2023/07/25 02:18:03;;;;;;;3.13;1.43;;;22.80;92.70;;;;;;5102239;28;20174;-90
2023/07/25 02:20:32;;;;;;;1.40;1.30;;;22.80;92.70;;;;;;5100296;28;20236;-90
2023/07/25 02:22:59;;;;;;;1.83;1.40;;;22.80;92.70;;;;;;5103700;28;20170;-90
2023/07/25 02:25:25;;;;;;;1.53;1.30;;;22.80;92.60;;;;;;5089846;28;20218;-90
2023/07/25 02:27:51;;;;;;;3.23;1.50;;;22.80;92.70;;;;;;5106732;28;20232;-90
2023/07/25 02:30:17;;;;;;;1.40;1.30;;;22.80;92.60;;;;;;5085241;28;20218;-90
2023/07/25 02:32:43;;;;;;;1.23;1.10;;;22.80;92.70;;;;;;5109241;28;20520;-90
2023/07/25 02:35:08;;;;;;;2.47;1.50;;;22.80;92.60;;;;;;5102120;28;20300;-90
2023/07/25 02:37:34;;;;;;;1.67;1.47;;;22.70;92.60;;;;;;5098646;28;20178;-90
2023/07/25 02:39:59;;;;;;;3.70;1.53;;;22.70;92.60;;;;;;5109224;28;20492;-90
2023/07/25 02:42:25;;;;;;;1.37;1.10;;;22.70;92.60;;;;;;5099540;28;20492;-90
2023/07/25 02:44:51;;;;;;;1.13;1.03;;;22.70;92.60;;;;;;5102019;28;20186;-90
2023/07/25 02:47:16;;;;;;;1.43;1.30;;;22.70;92.70;;;;;;5099917;28;20217;-90
2023/07/25 02:49:44;;;;;;;1.83;1.20;;;22.70;92.70;;;;;;5100919;28;20239;-90
2023/07/25 02:52:10;;;;;;;1.87;1.53;;;22.70;92.60;;;;;;5101056;28;20169;-90
2023/07/25 02:54:36;;;;;;;1.57;1.40;;;22.70;92.60;;;;;;5101423;28;20205;-90
2023/07/25 02:57:01;;;;;;;1.33;1.20;;;22.70;92.60;;;;;;5100017;28;20560;-90
2023/07/25 02:59:29;;;;;;;1.80;1.30;;;22.70;92.60;;;;;;5104646;28;20298;-90
2023/07/25 03:01:54;;;;;;;2.27;1.40;;;22.70;92.60;;;;;;5099452;28;20329;-90
2023/07/25 03:04:20;;;;;;;2.13;1.40;;;22.70;92.60;;;;;;5105358;28;20476;-90
2023/07/25 03:06:46;;;;;;;3.03;1.40;;;22.70;92.60;;;;;;5103233;28;20209;-90
2023/07/25 03:09:11;;;;;;;2.17;1.40;;;22.70;92.60;;;;;;5104293;28;20243;-90
2023/07/25 03:11:37;;;;;;;1.87;1.40;;;22.70;92.60;;;;;;5100247;28;20282;-90
2023/07/25 03:14:03;;;;;;;2.90;1.40;;;22.70;92.50;;;;;;5107911;28;20171;-90
2023/07/25 03:16:29;;;;;;;2.13;1.20;;;22.70;92.50;;;;;;5102809;28;20296;-90
2023/07/25 03:18:55;;;;;;;2.70;1.27;;;22.60;92.50;;;;;;5096896;28;20213;-90
2023/07/25 03:21:20;;;;;;;2.60;1.40;;;22.60;92.50;;;;;;5101640;28;20206;-90
2023/07/25 03:23:46;;;;;;;1.70;1.40;;;22.60;92.40;;;;;;5099916;28;20186;-90
2023/07/25 03:26:12;;;;;;;2.83;1.60;;;22.70;92.40;;;;;;5104959;28;20209;-90
2023/07/25 03:28:37;;;;;;;2.57;1.30;;;22.60;92.50;;;;;;5104197;28;20456;-90
2023/07/25 03:31:04;;;;;;;1.70;1.30;;;22.60;92.40;;;;;;5098591;28;20174;-90
2023/07/25 03:33:30;;;;;;;1.77;1.50;;;22.60;92.40;;;;;;5098012;28;20560;-89
2023/07/25 03:35:56;;;;;;;4.00;1.50;;;22.60;92.40;;;;;;5101200;28;20251;-90
2023/07/25 03:38:22;;;;;;;2.00;1.33;;;22.60;92.40;;;;;;5102540;28;20212;-90
2023/07/25 03:40:47;;;;;;;2.40;1.77;;;22.50;92.30;;;;;;5101289;28;20198;-90
2023/07/25 03:43:13;;;;;;;3.07;1.50;;;22.50;92.30;;;;;;5099414;28;20225;-90
2023/07/25 03:45:39;;;;;;;2.37;1.63;;;22.50;92.30;;;;;;5101434;28;20179;-90
2023/07/25 03:48:05;;;;;;;1.70;1.37;;;22.50;92.30;;;;;;5100090;28;20180;-90
2023/07/25 03:50:31;;;;;;;1.90;1.30;;;22.40;92.20;;;;;;5101013;28;20183;-90
2023/07/25 03:52:58;;;;;;;2.37;1.47;;;22.50;92.20;;;;;;5094491;28;20179;-90
2023/07/25 03:55:24;;;;;;;3.33;1.40;;;22.50;92.20;;;;;;5102560;28;20174;-90
2023/07/25 03:57:53;;;;;;;1.80;1.50;;;22.40;92.20;;;;;;5096900;28;20194;-90
2023/07/25 04:00:19;;;;;;;2.97;1.40;;;22.40;92.10;;;;;;5102502;28;20185;-90
2023/07/25 04:02:44;;;;;;;3.43;2.10;;;22.40;92.00;;;;;;5108720;28;20304;-90
2023/07/25 04:05:10;;;;;;;5.30;2.30;;;22.40;92.10;;;;;;5095516;28;20181;-89
2023/07/25 04:07:36;;;;;;;3.83;2.20;;;22.40;92.10;;;;;;5103374;28;20500;-89
2023/07/25 04:10:04;;;;;;;7.13;2.10;;;22.40;92.20;;;;;;5107301;28;20249;-89
2023/07/25 04:12:30;;;;;;;3.63;2.50;;;22.30;92.10;;;;;;5099308;28;20391;-90
2023/07/25 04:14:57;;;;;;;3.60;2.10;;;22.30;92.10;;;;;;5100667;28;20418;-90
2023/07/25 04:17:23;;;;;;;3.17;2.10;;;22.30;92.10;;;;;;5104976;28;20333;-90
2023/07/25 04:19:50;;;;;;;2.37;1.90;;;22.30;92.10;;;;;;5100930;28;20422;-90
2023/07/25 04:22:15;;;;;;;2.73;1.90;;;22.30;92.10;;;;;;5104885;28;20203;-90
2023/07/25 04:24:41;;;;;;;4.20;2.50;;;22.30;92.10;;;;;;5101548;28;20263;-90
2023/07/25 04:27:06;;;;;;;2.57;1.60;;;22.30;92.10;;;;;;5111566;28;20262;-90
2023/07/25 04:29:32;;;;;;;2.70;2.00;;;22.30;92.10;;;;;;5104583;28;20166;-90
2023/07/25 04:31:58;;;;;;;2.60;1.80;;;22.30;92.00;;;;;;5108680;28;20167;-90
2023/07/25 04:34:23;;;;;;;2.53;1.93;;;22.30;92.10;;;;;;5103405;28;20244;-90
2023/07/25 04:36:52;;;;;;;2.13;1.90;;;22.30;92.00;;;;;;5107554;28;20171;-90
2023/07/25 04:39:18;;;;;;;2.87;2.07;;;22.20;92.00;;;;;;5101459;28;20199;-90
2023/07/25 04:41:44;;;;;;;4.80;1.83;;;22.20;92.00;;;;;;5099244;28;20198;-90
2023/07/25 04:44:10;;;;;;;1.83;1.67;;;22.20;92.00;;;;;;5110170;28;20577;-89
2023/07/25 04:46:35;;;;;;;2.93;2.07;;;22.20;92.00;;;;;;5099445;28;20218;-90
2023/07/25 04:49:01;;;;;;;2.07;1.70;;;22.20;92.00;;;;;;5104700;28;20174;-90
2023/07/25 04:51:27;;;;;;;2.97;1.60;;;22.20;92.00;;;;;;5109317;28;20246;-90
2023/07/25 04:53:52;;;;;;;2.47;1.93;;;22.20;92.00;;;;;;5099433;28;20483;-90
2023/07/25 04:56:18;;;;;;;2.50;2.00;;;22.20;92.00;;;;;;5101623;28;20187;-90
2023/07/25 04:58:44;;;;;;;1.57;1.47;;;22.20;92.00;;;;;;5102800;28;20181;-90
2023/07/25 05:01:10;;;;;;;2.33;1.90;;;22.30;91.90;;;;;;5102226;28;20281;-91
2023/07/25 05:03:36;;;;;;;1.90;1.60;;;22.30;91.80;;;;;;5101335;28;20175;-91
2023/07/25 05:06:01;;;;;;;3.10;2.00;;;22.30;91.90;;;;;;5102039;28;20213;-92
2023/07/25 05:08:27;;;;;;;2.33;1.77;;;22.30;91.80;;;;;;5101717;28;20187;-91
2023/07/25 05:10:53;;;;;;;4.13;2.20;;;22.30;91.80;;;;;;5098709;28;20227;-92
2023/07/25 05:13:19;;;;;;;1.87;1.70;;;22.30;91.80;;;;;;5102823;28;20182;-91
2023/07/25 05:15:45;;;;;;;2.13;1.67;;;22.30;91.60;;;;;;5103933;28;20182;-91
2023/07/25 05:18:11;;;;;;;1.93;1.50;;;22.30;91.60;;;;;;5098608;28;20210;-90
2023/07/25 05:20:37;;;;;;;2.50;1.87;;;22.30;91.60;;;;;;5103881;28;20245;-91
2023/07/25 05:23:02;;;;;;;3.07;1.60;;;22.30;91.50;;;;;;5102495;28;20285;-91
2023/07/25 05:25:28;;;;;;;3.80;1.50;;;22.30;91.50;;;;;;5099071;28;20279;-92
2023/07/25 05:27:54;;;;;;;2.20;1.50;;;22.30;91.40;;;;;;5099413;28;20210;-91
2023/07/25 05:30:20;;;;;;;2.63;1.53;;;22.40;91.30;;;;;;5103466;28;20174;-91
2023/07/25 05:32:48;;;;;;;2.30;1.53;;;22.40;91.20;;;;;;5097591;28;20196;-91
2023/07/25 05:35:14;;;;;;;2.10;1.60;;;22.50;91.10;;;;;;5099604;28;20194;-92
2023/07/25 05:37:39;;;;;;;1.80;1.60;;;22.50;91.00;;;;;;5098322;28;20183;-91
2023/07/25 05:40:06;;;;;;;2.77;1.50;;;22.60;90.90;;;;;;5101214;28;20243;-92
2023/07/25 05:42:32;;;;;;;2.93;1.80;;;22.60;90.70;;;;;;5097337;28;20179;-92
2023/07/25 05:45:29;;;;;;;;;;;;;;;;;;;;;
2023/07/25 05:47:44;;;;;;;2.87;1.50;;;22.70;90.60;;;;;;5097204;28;20225;-93
2023/07/25 05:50:11;;;;;;;3.80;1.60;;;22.70;90.50;;;;;;5099731;28;20174;-93
2023/07/25 05:52:36;;;;;;;3.30;1.60;;;22.70;90.50;;;;;;5097019;28;20218;-93
2023/07/25 05:55:02;;;;;;;1.63;1.43;;;22.70;90.40;;;;;;5101742;28;20278;-93
2023/07/25 05:57:28;;;;;;;1.40;1.30;;;22.70;90.40;;;;;;5100807;28;20294;-92
2023/07/25 05:59:53;;;;;;;2.40;1.60;;;22.80;90.40;;;;;;5100429;28;20221;-93
2023/07/25 06:02:20;;;;;;;3.20;1.63;;;22.80;90.30;;;;;;5100948;28;20280;-93
2023/07/25 06:04:46;;;;;;;3.80;1.60;;;22.80;90.20;;;;;;5095787;28;20429;-92
2023/07/25 06:07:15;;;;;;;2.93;1.50;;;22.90;90.00;;;;;;5100865;28;20605;-93
2023/07/25 06:09:41;;;;;;;3.03;1.57;;;23.00;89.60;;;;;;5098838;28;20191;-93
2023/07/25 06:12:14;;;;;;;2.17;1.60;;;23.10;89.20;;;;;;5099158;28;20170;-93
2023/07/25 06:14:39;;;;;;;2.60;1.60;;;23.10;88.70;;;;;;5098528;28;20556;-93
2023/07/25 06:17:08;;;;;;;1.83;1.57;;;23.10;88.70;;;;;;5094593;28;20231;-91
2023/07/25 06:19:33;;;;;;;2.27;1.40;;;23.10;88.50;;;;;;5097346;28;20185;-90
2023/07/25 06:21:59;;;;;;;1.60;1.50;;;23.10;88.20;;;;;;5094619;28;20190;-90
2023/07/25 06:24:25;;;;;;;2.57;1.67;;;23.10;88.20;;;;;;5097688;28;20182;-91
2023/07/25 06:26:52;;;;;;;4.53;2.70;;;23.10;88.20;;;;;;5093369;28;20268;-90
2023/07/25 06:29:18;;;;;;;1.60;1.37;;;23.10;87.70;;;;;;5093433;28;20174;-91
2023/07/25 06:31:44;;;;;;;2.97;1.60;;;23.10;87.90;;;;;;5098726;28;20445;-93
2023/07/25 06:34:09;;;;;;;2.80;1.53;;;23.10;88.30;;;;;;5099508;28;20194;-93
2023/07/25 06:36:35;;;;;;;2.33;1.50;;;23.10;88.10;;;;;;5102255;28;20201;-94
2023/07/25 06:39:01;;;;;;;1.97;1.60;;;23.10;88.30;;;;;;5095920;28;20186;-93
2023/07/25 06:41:26;;;;;;;1.93;1.53;;;23.10;88.40;;;;;;5098664;28;20242;-94
2023/07/25 06:43:52;;;;;;;1.67;1.37;;;23.00;88.40;;;;;;5099028;28;20267;-93
2023/07/25 06:46:17;;;;;;;2.10;1.40;;;23.00;88.40;;;;;;5100738;28;20213;-93
2023/07/25 06:48:44;;;;;;;2.77;1.60;;;23.10;88.40;;;;;;5098991;28;20214;-93
2023/07/25 06:51:09;;;;;;;4.30;1.27;;;23.10;88.20;;;;;;5098027;28;20174;-93
2023/07/25 06:53:35;;;;;;;2.10;1.30;;;23.10;88.00;;;;;;5097077;28;20223;-93
2023/07/25 06:56:00;;;;;;;1.60;1.50;;;23.10;87.90;;;;;;5102462;28;20247;-93
2023/07/25 06:58:26;;;;;;;2.63;1.50;;;23.20;87.40;;;;;;5100593;28;20498;-93
2023/07/25 07:00:52;;;;;;;2.00;1.40;;;23.20;87.30;;;;;;5095699;28;20448;-93
2023/07/25 07:03:17;;;;;;;1.53;1.37;;;23.20;87.30;;;;;;5095595;28;20523;-93
2023/07/25 07:05:52;;;;;;;2.03;1.47;;;23.30;87.10;;;;;;5094882;28;20511;-93
2023/07/25 07:08:18;;;;;;;2.77;1.43;;;23.20;86.90;;;;;;5098270;28;20174;-93
2023/07/25 07:10:44;;;;;;;2.07;1.47;;;23.20;86.90;;;;;;5095124;28;20318;-93
2023/07/25 07:13:09;;;;;;;1.60;1.43;;;23.20;86.70;;;;;;5098442;28;20239;-93
2023/07/25 07:15:36;;;;;;;2.27;1.30;;;23.20;86.70;;;;;;5104186;28;20278;-93
2023/07/25 07:18:01;;;;;;;1.70;1.50;;;23.20;86.70;;;;;;5094306;28;20204;-93
2023/07/25 07:20:27;;;;;;;1.50;1.40;;;23.20;87.00;;;;;;5097152;28;20429;-93
2023/07/25 07:22:53;;;;;;;2.17;1.63;;;23.20;86.70;;;;;;5096009;28;20193;-93
2023/07/25 07:25:22;;;;;;;1.97;1.60;;;23.20;86.30;;;;;;5095215;28;20397;-93
2023/07/25 07:27:47;;;;;;;2.63;1.60;;;23.30;87.00;;;;;;5095738;28;20245;-93
2023/07/25 07:30:13;;;;;;;2.90;1.50;;;23.40;86.40;;;;;;5099469;28;20384;-92
2023/07/25 07:32:39;;;;;;;4.57;1.70;;;23.40;86.20;;;;;;5092670;28;20548;-92
2023/07/25 07:35:04;;;;;;;2.83;1.70;;;23.50;85.70;;;;;;5093478;28;20394;-92
2023/07/25 07:37:30;;;;;;;4.37;1.63;;;23.40;86.40;;;;;;5098541;28;20189;-92
2023/07/25 07:39:56;;;;;;;5.43;1.50;;;23.50;86.60;;;;;;5102291;28;20486;-92
2023/07/25 07:42:21;;;;;;;3.63;1.60;;;23.50;86.10;;;;;;5098349;28;20198;-92
2023/07/25 07:44:47;;;;;;;3.83;1.53;;;23.60;86.00;;;;;;5097090;28;20255;-92
2023/07/25 07:47:13;;;;;;;3.13;1.60;;;23.60;85.40;;;;;;5101084;28;20524;-92
2023/07/25 07:49:38;;;;;;;4.03;1.50;;;23.70;85.40;;;;;;5096332;28;20233;-92
2023/07/25 07:52:05;;;;;;;7.27;1.50;;;23.80;85.40;;;;;;5096368;28;20190;-91
2023/07/25 07:54:33;;;;;;;3.20;1.50;;;23.80;85.00;;;;;;5099195;28;20473;-91
2023/07/25 07:56:59;;;;;;;3.13;1.80;;;23.90;84.70;;;;;;5097920;28;20179;-92
2023/07/25 07:59:24;;;;;;;3.17;1.50;;;24.00;84.20;;;;;;5097681;28;20291;-91
2023/07/25 08:01:50;;;;;;;6.17;1.83;;;24.00;83.70;;;;;;5095742;28;20209;-91
2023/07/25 08:04:18;;;;;;;2.43;1.53;;;24.00;83.30;;;;;;5099005;28;20190;-91
2023/07/25 08:06:44;;;;;;;2.80;1.53;;;24.00;83.20;;;;;;5099640;28;20556;-91
2023/07/25 08:09:09;;;;;;;4.17;1.57;;;23.90;82.90;;;;;;5095028;28;20586;-91
2023/07/25 08:11:35;;;;;;;4.37;1.90;;;23.90;82.90;;;;;;5096536;28;20242;-91
2023/07/25 08:14:01;;;;;;;3.07;1.73;;;23.90;82.10;;;;;;5097387;28;20175;-91
2023/07/25 08:16:29;;;;;;;4.13;1.83;;;23.80;79.40;;;;;;5097195;28;20181;-92
2023/07/25 08:18:54;;;;;;;2.67;1.57;;;23.80;81.90;;;;;;5096881;27;20194;-92
2023/07/25 08:21:23;;;;;;;5.07;1.60;;;23.90;81.70;;;;;;5095761;28;20458;-91
2023/07/25 08:23:48;;;;;;;5.33;1.57;;;24.00;81.40;;;;;;5098885;28;20574;-92
2023/07/25 08:26:14;;;;;;;4.07;1.60;;;24.00;80.80;;;;;;5094550;28;20387;-91
2023/07/25 08:28:40;;;;;;;3.43;1.50;;;24.00;80.20;;;;;;5099127;28;20197;-91
2023/07/25 08:31:06;;;;;;;3.83;1.93;;;24.10;80.10;;;;;;5092303;28;20279;-91
2023/07/25 08:33:33;;;;;;;5.23;1.70;;;24.10;79.30;;;;;;5094864;28;20190;-91
2023/07/25 08:35:59;;;;;;;6.10;1.43;;;24.10;79.30;;;;;;5090194;28;20185;-91
2023/07/25 08:38:24;;;;;;;6.03;1.60;;;24.10;79.20;;;;;;5094216;28;20189;-92
2023/07/25 08:41:10;;;;;;;5.07;1.90;;;24.10;78.70;;;;;;5090398;28;20178;-92
2023/07/25 08:43:38;;;;;;;5.87;2.00;;;24.10;78.40;;;;;;5093936;28;20171;-92
2023/07/25 08:46:19;;;;;;;4.60;1.67;;;24.20;78.30;;;;;;5098085;28;20210;-91
2023/07/25 08:48:47;;;;;;;3.43;1.70;;;24.10;77.80;;;;;;5097744;28;20174;-92
2023/07/25 08:51:22;;;;;;;2.43;1.40;;;24.10;77.90;;;;;;5094761;28;20171;-91
2023/07/25 08:54:13;;;;;;;4.83;1.60;;;24.10;77.70;;;;;;5092868;28;20174;-92
2023/07/25 08:56:39;;;;;;;3.90;1.60;;;24.10;77.60;;;;;;5091023;28;20558;-91
2023/07/25 08:59:05;;;;;;;2.17;1.50;;;24.10;77.70;;;;;;5095392;28;20637;-91
2023/07/25 09:01:31;;;;;;;4.23;1.60;;;24.10;77.70;;;;;;5093069;28;20182;-92
2023/07/25 09:04:00;;;;;;;4.87;1.80;;;24.10;78.10;;;;;;5091579;28;20251;-92
2023/07/25 09:06:27;;;;;;;3.87;1.67;;;24.10;78.40;;;;;;5092792;28;20433;-92
2023/07/25 09:08:59;;;;;;;3.57;1.83;;;24.00;78.20;;;;;;5095825;28;20179;-92
2023/07/25 09:11:26;;;;;;;4.63;1.90;;;24.00;78.10;;;;;;5097099;28;20523;-92
2023/07/25 09:13:55;;;;;;;3.37;1.67;;;24.00;78.00;;;;;;5093828;28;20324;-92
2023/07/25 09:16:20;;;;;;;2.67;1.50;;;23.90;78.00;;;;;;5093477;28;20182;-92
2023/07/25 09:18:49;;;;;;;5.00;1.50;;;24.00;77.90;;;;;;5094360;28;20488;-92
2023/07/25 09:21:15;;;;;;;3.20;1.77;;;23.90;77.70;;;;;;5097227;28;20225;-92
2023/07/25 09:23:57;;;;;;;5.47;1.70;;;23.90;77.70;;;;;;5091532;28;20189;-92
2023/07/25 09:26:25;;;;;;;5.33;1.80;;;23.90;77.60;;;;;;5091154;28;20479;-92
2023/07/25 09:28:53;;;;;;;4.47;1.50;;;23.90;77.20;;;;;;5093092;28;20179;-92
2023/07/25 09:31:19;;;;;;;3.60;1.53;;;23.90;77.10;;;;;;5092223;28;20421;-91
2023/07/25 09:33:50;;;;;;;4.57;1.60;;;23.80;77.00;;;;;;5091410;28;20309;-92
2023/07/25 09:36:16;;;;;;;3.13;1.70;;;23.80;77.20;;;;;;5095149;28;20175;-92
2023/07/25 09:38:58;;;;;;;2.90;1.43;;;23.80;77.20;;;;;;5094124;28;20185;-92
2023/07/25 09:41:27;;;;;;;3.13;1.50;;;23.80;77.10;;;;;;5098323;28;20369;-92
2023/07/25 09:43:53;;;;;;;3.57;1.57;;;23.70;77.10;;;;;;5098837;28;20178;-92
2023/07/25 09:46:19;;;;;;;2.87;1.63;;;23.70;77.10;;;;;;5095812;28;20250;-92
2023/07/25 09:48:47;;;;;;;4.17;1.70;;;23.70;77.10;;;;;;5095383;28;20376;-93
2023/07/25 09:51:14;;;;;;;4.23;1.70;;;23.70;76.90;;;;;;5090508;28;20182;-92
2023/07/25 09:53:52;;;;;;;4.03;1.60;;;23.70;76.70;;;;;;5087468;28;20204;-92
2023/07/25 09:56:25;;;;;;;2.87;1.80;;;23.70;76.40;;;;;;5096279;28;20178;-91
2023/07/25 09:58:51;;;;;;;2.33;1.50;;;23.70;76.40;;;;;;5094574;28;20302;-92
2023/07/25 10:01:18;;;;;;;2.73;1.60;;;23.70;76.30;;;;;;5095621;28;20186;-92
2023/07/25 10:03:46;;;;;;;4.13;1.60;;;23.80;75.90;;;;;;5092779;28;20182;-92
2023/07/25 10:06:14;;;;;;;2.10;1.50;;;23.80;75.90;;;;;;5103545;28;20457;-91
2023/07/25 10:08:45;;;;;;;2.87;1.47;;;23.80;74.90;;;;;;5091790;28;20179;-91
2023/07/25 10:11:14;;;;;;;2.17;1.60;;;23.90;75.00;;;;;;5098356;28;20175;-91
2023/07/25 10:13:50;;;;;;;2.57;1.47;;;24.00;74.60;;;;;;5093164;28;20194;-91
2023/07/25 10:16:17;;;;;;;2.37;1.50;;;24.10;73.90;;;;;;5093357;28;20174;-91
2023/07/25 10:18:42;;;;;;;3.83;1.70;;;24.20;73.50;;;;;;5094345;28;20213;-91
2023/07/25 10:21:11;;;;;;;3.63;1.80;;;24.20;73.30;;;;;;5091469;28;20399;-91
2023/07/25 10:23:37;;;;;;;3.33;1.53;;;24.20;71.30;;;;;;5091300;28;20647;-91
2023/07/25 10:26:13;;;;;;;4.43;1.77;;;24.20;72.60;;;;;;5098970;28;20250;-91
2023/07/25 10:28:39;;;;;;;2.27;1.50;;;24.20;71.20;;;;;;5101341;28;20297;-91
2023/07/25 10:31:22;;;;;;;3.17;1.60;;;24.20;71.80;;;;;;5092600;28;20495;-91
2023/07/25 10:33:58;;;;;;;2.43;1.43;;;24.20;72.10;;;;;;5091779;28;20365;-90
2023/07/25 10:36:24;;;;;;;3.03;1.40;;;24.30;72.10;;;;;;5096207;28;20186;-91
2023/07/25 10:38:52;;;;;;;3.80;1.50;;;24.40;71.90;;;;;;5093253;28;20174;-91
2023/07/25 10:41:21;;;;;;;1.87;1.30;;;24.40;71.30;;;;;;5091039;28;20383;-91
2023/07/25 10:43:48;;;;;;;4.50;1.90;;;24.50;71.00;;;;;;5089869;28;20178;-91
2023/07/25 10:46:19;;;;;;;4.03;1.50;;;24.50;70.80;;;;;;5093319;28;20618;-91
2023/07/25 10:48:46;;;;;;;8.10;1.73;;;24.50;70.20;;;;;;5090110;28;20556;-91
2023/07/25 10:51:15;;;;;;;4.73;1.60;;;24.30;69.60;;;;;;5089781;28;20654;-90
2023/07/25 10:53:59;;;;;;;6.27;1.77;;;24.00;68.90;;;;;;5088257;28;20254;-90
2023/07/25 10:56:25;;;;;;;4.53;1.80;;;24.00;68.50;;;;;;5091667;28;20178;-91
2023/07/25 10:59:09;;;;;;;6.97;2.13;;;24.00;67.80;;;;;;5090328;28;20183;-90
2023/07/25 11:01:36;;;;;;;6.43;1.80;;;24.10;68.40;;;;;;5099093;28;20189;-90
2023/07/25 11:04:25;;;;;;;7.37;1.70;;;24.10;69.30;;;;;;5092993;28;20295;-91
2023/07/25 11:06:53;;;;;;;4.57;1.70;;;24.10;69.20;;;;;;5094277;28;20257;-91
2023/07/25 11:09:20;;;;;;;4.73;1.57;;;24.10;69.50;;;;;;5093102;28;20183;-90
2023/07/25 11:11:48;;;;;;;7.00;1.60;;;24.00;69.90;;;;;;5097159;28;20314;-90
2023/07/25 11:14:17;;;;;;;3.43;1.60;;;24.00;69.20;;;;;;5096356;28;20552;-91
2023/07/25 11:16:44;;;;;;;4.77;1.63;;;24.00;69.70;;;;;;5096334;28;20182;-90
2023/07/25 11:19:10;;;;;;;4.90;2.00;;;24.00;69.90;;;;;;5100905;28;20250;-90
2023/07/25 11:21:41;;;;;;;4.63;1.87;;;24.00;70.00;;;;;;5095891;28;20179;-90
2023/07/25 11:24:08;;;;;;;3.17;2.20;;;24.00;70.40;;;;;;5099297;28;20293;-90
2023/07/25 11:26:37;;;;;;;4.97;3.00;;;24.00;70.60;;;;;;5101485;28;20432;-90
2023/07/25 11:29:07;;;;;;;5.47;2.00;;;24.00;70.30;;;;;;5099355;28;20510;-91
2023/07/25 11:31:36;;;;;;;3.97;2.00;;;24.00;70.50;;;;;;5096893;28;20174;-90
2023/07/25 11:34:19;;;;;;;8.47;1.90;;;24.00;70.30;;;;;;5100096;28;20258;-91
2023/07/25 11:36:44;;;;;;;3.23;1.57;;;24.00;70.20;;;;;;5099936;28;20273;-90
2023/07/25 11:39:11;;;;;;;3.57;1.73;;;24.00;70.60;;;;;;5094026;28;20525;-91
2023/07/25 11:41:38;;;;;;;2.50;1.60;;;24.00;70.60;;;;;;5097475;28;20240;-92
2023/07/25 11:44:08;;;;;;;4.17;2.00;;;24.10;70.50;;;;;;5100527;28;20186;-91
2023/07/25 11:46:33;;;;;;;3.97;1.53;;;24.10;70.00;;;;;;5101010;28;20293;-91
2023/07/25 11:49:00;;;;;;;3.63;1.77;;;24.20;69.60;;;;;;5098998;28;20243;-91
2023/07/25 11:51:26;;;;;;;2.97;1.70;;;24.30;69.40;;;;;;5098414;28;20423;-91
2023/07/25 11:53:52;;;;;;;3.90;1.60;;;24.30;69.20;;;;;;5098276;28;20175;-91
2023/07/25 11:56:18;;;;;;;3.00;1.47;;;24.40;69.00;;;;;;5096076;28;20240;-91
2023/07/25 11:58:49;;;;;;;4.43;1.80;;;24.40;68.40;;;;;;5095529;28;20575;-90
2023/07/25 12:01:16;;;;;;;4.00;1.70;;;24.30;68.60;;;;;;5097369;28;20193;-90
2023/07/25 12:03:48;;;;;;;2.90;1.60;;;24.20;68.10;;;;;;5094336;28;20194;-92
2023/07/25 12:06:15;;;;;;;2.97;1.50;;;24.10;68.60;;;;;;5099116;28;20354;-91
2023/07/25 12:08:46;;;;;;;2.77;1.60;;;24.00;69.30;;;;;;5093896;28;20594;-91
2023/07/25 12:11:14;;;;;;;3.27;1.50;;;24.00;69.90;;;;;;5099725;28;20320;-91
2023/07/25 12:13:44;;;;;;;2.13;1.40;;;24.00;70.00;;;;;;5103776;28;20447;-91
2023/07/25 12:16:23;;;;;;;3.60;1.80;;;24.00;70.30;;;;;;5095480;28;20209;-91
2023/07/25 12:18:53;;;;;;;2.30;1.30;;;24.00;70.40;;;;;;5092757;28;20182;-91
2023/07/25 12:21:30;;;;;;;4.90;1.70;;;23.90;70.60;;;;;;5097928;28;20178;-91
2023/07/25 12:24:02;;;;;;;4.03;1.60;;;24.00;70.50;;;;;;5097053;28;20394;-91
2023/07/25 12:26:28;;;;;;;6.20;1.60;;;23.90;70.50;;;;;;5092757;28;20350;-91
2023/07/25 12:28:54;;;;;;;5.00;1.90;;;24.00;70.70;;;;;;5097141;28;20183;-91
2023/07/25 12:31:21;;;;;;;7.73;1.90;;;23.90;69.90;;;;;;5097630;28;20310;-91
2023/07/25 12:33:51;;;;;;;3.70;1.70;;;24.00;70.30;;;;;;5095037;28;20195;-91
2023/07/25 12:36:18;;;;;;;4.67;2.13;;;24.00;70.30;;;;;;5097200;28;20749;-91
2023/07/25 12:38:44;;;;;;;3.70;1.70;;;24.00;70.30;;;;;;5094701;28;20179;-92
2023/07/25 12:41:11;;;;;;;5.87;1.63;;;24.00;70.30;;;;;;5096697;28;20181;-93
2023/07/25 12:43:37;;;;;;;3.90;1.47;;;24.00;70.30;;;;;;5097801;28;20187;-93
2023/07/25 12:46:03;;;;;;;5.57;1.93;;;24.10;70.00;;;;;;5097920;28;20189;-92
2023/07/25 12:48:28;;;;;;;4.13;1.90;;;24.10;69.90;;;;;;5094178;28;20521;-92